Time;durP1;ratioP1;P1;durP2;ratioP2;P2;SDS_P1;SDS_P2;PMS_P1;PMS_P2;Temp;Humidity;BMP_temperature;BMP_pressure;BME280_temperature;BME280_humidity;BME280_pressure;Samples;Min_cycle;Max_cycle;Signal;HPM_P1;HPM_P2
2022/05/27 00:02:00;;;;;;;5.47;2.90;;;;;;;21.58;47.14;95455.44;5024146;28;20221;-67
2022/05/27 00:04:25;;;;;;;3.08;2.65;;;;;;;21.46;47.20;95454.44;5035261;28;20230;-67
2022/05/27 00:06:50;;;;;;;3.13;2.58;;;;;;;21.36;47.70;95454.84;5022196;28;20218;-67
2022/05/27 00:09:16;;;;;;;4.97;2.92;;;;;;;21.39;47.50;95446.44;5050114;28;20236;-63
2022/05/27 00:11:41;;;;;;;3.00;2.50;;;;;;;21.31;47.65;95442.09;5035462;28;20222;-65
2022/05/27 00:14:07;;;;;;;4.25;2.72;;;;;;;21.29;47.83;95446.81;5028408;28;20241;-60
2022/05/27 00:16:32;;;;;;;5.63;2.85;;;;;;;21.21;48.18;95451.56;5041537;28;20232;-67
2022/05/27 00:18:58;;;;;;;3.83;2.67;;;;;;;21.28;47.88;95452.38;5056022;28;20226;-64
2022/05/27 00:21:24;;;;;;;5.45;2.90;;;;;;;21.17;48.08;95450.31;5053411;28;20229;-65
2022/05/27 00:23:51;;;;;;;3.72;2.63;;;;;;;20.97;48.98;95447.66;5025149;28;20228;-61
2022/05/27 00:26:16;;;;;;;4.18;2.55;;;;;;;21.12;48.31;95453.63;5053948;28;20237;-67
2022/05/27 00:28:41;;;;;;;3.08;2.75;;;;;;;21.15;48.13;95451.38;5021034;28;20241;-63
2022/05/27 00:31:07;;;;;;;3.75;2.60;;;;;;;21.13;48.24;95437.38;5053094;28;20217;-61
2022/05/27 00:33:33;;;;;;;5.13;2.70;;;;;;;21.11;48.31;95436.75;5057271;28;20299;-63
2022/05/27 00:35:59;;;;;;;4.45;2.63;;;;;;;21.07;48.46;95442.75;5020553;28;20222;-61
2022/05/27 00:38:24;;;;;;;6.88;2.67;;;;;;;20.93;48.78;95440.06;5014689;28;20331;-64
2022/05/27 00:40:52;;;;;;;5.95;3.03;;;;;;;20.90;48.33;95432.47;5017434;28;20271;-62
2022/05/27 00:43:19;;;;;;;3.97;2.90;;;;;;;20.97;48.36;95435.13;5019781;28;20252;-64
2022/05/27 00:46:00;;;;;;;3.47;2.63;;;;;;;21.06;48.09;95438.41;5050438;28;20226;-68
2022/05/27 00:48:27;;;;;;;4.03;2.45;;;;;;;20.89;48.84;95438.00;5017254;28;20230;-65
2022/05/27 00:50:54;;;;;;;5.00;2.65;;;;;;;20.96;48.30;95436.16;5038048;28;20225;-63
2022/05/27 00:53:27;;;;;;;4.72;3.08;;;;;;;20.82;48.14;95432.66;5053636;28;20228;-62
2022/05/27 00:55:58;;;;;;;4.03;2.70;;;;;;;20.84;47.96;95432.44;5032826;28;20206;-67
2022/05/27 00:58:40;;;;;;;3.88;2.78;;;;;;;20.94;47.56;95430.19;5035132;28;20240;-67
2022/05/27 01:01:06;;;;;;;4.60;2.72;;;;;;;20.90;47.83;95420.91;5023811;28;20314;-66
2022/05/27 01:03:32;;;;;;;7.85;2.95;;;;;;;20.95;47.83;95439.03;5051175;28;20252;-68
2022/05/27 01:05:58;;;;;;;3.72;2.58;;;;;;;20.88;48.15;95436.38;5057074;28;20214;-67
2022/05/27 01:08:28;;;;;;;2.97;2.38;;;;;;;20.97;47.78;95434.31;5010076;28;20217;-65
2022/05/27 01:11:32;;;;;;;2.63;2.42;;;;;;;20.88;48.20;95433.69;5020391;28;20284;-63
2022/05/27 01:14:14;;;;;;;5.03;2.70;;;;;;;20.88;48.20;95425.69;4977527;28;20256;-65
2022/05/27 01:17:13;;;;;;;3.80;2.58;;;;;;;20.85;48.33;95429.59;4935517;28;20232;-60
2022/05/27 01:22:46;;;;;;;3.83;2.63;;;;;;;20.78;48.26;95419.91;4888042;29;20309;-61
2022/05/27 01:25:48;;;;;;;3.53;2.90;;;;;;;20.72;48.45;95420.75;4877140;29;20318;-67
2022/05/27 01:28:27;;;;;;;5.75;2.80;;;;;;;20.62;48.67;95421.13;4906692;29;20226;-61
2022/05/27 01:31:10;;;;;;;4.53;3.08;;;;;;;20.62;48.59;95421.94;4888781;29;20238;-64
2022/05/27 01:33:38;;;;;;;4.85;2.67;;;;;;;20.56;48.67;95420.09;4872628;29;20233;-61
2022/05/27 01:36:04;;;;;;;3.78;2.90;;;;;;;20.64;48.61;95427.09;4886687;29;20230;-66
2022/05/27 01:38:56;;;;;;;3.95;2.55;;;;;;;20.61;48.69;95414.97;4905659;29;20307;-68
2022/05/27 01:41:27;;;;;;;4.05;3.03;;;;;;;20.60;49.24;95424.00;4866363;29;20385;-61
2022/05/27 01:44:00;;;;;;;4.15;2.80;;;;;;;20.48;49.86;95415.75;4876768;29;20231;-67
2022/05/27 01:46:33;;;;;;;5.53;3.15;;;;;;;20.35;50.45;95410.38;4939573;29;20678;-63
2022/05/27 01:49:20;;;;;;;4.93;3.30;;;;;;;20.35;50.50;95405.03;4939017;28;20229;-67
2022/05/27 01:51:54;;;;;;;7.45;3.92;;;;;;;20.36;50.52;95416.53;4938257;28;20332;-64
2022/05/27 01:54:40;;;;;;;5.32;3.47;;;;;;;20.24;51.10;95416.31;4908355;29;20336;-62
2022/05/27 01:57:11;;;;;;;4.65;3.63;;;;;;;20.29;51.08;95413.88;5012332;28;20242;-67
2022/05/27 02:00:04;;;;;;;6.63;3.80;;;;;;;20.15;51.63;95410.31;5016725;28;20275;-67
2022/05/27 02:02:31;;;;;;;4.43;3.92;;;;;;;20.18;51.86;95417.97;5052407;28;20637;-65
2022/05/27 02:05:09;;;;;;;6.93;4.20;;;;;;;20.23;51.68;95412.00;5016034;28;20329;-63
2022/05/27 02:07:53;;;;;;;5.63;4.15;;;;;;;20.12;52.11;95407.25;5023625;28;20222;-65
2022/05/27 02:10:37;;;;;;;6.75;4.80;;;;;;;20.05;52.46;95407.25;5020305;28;20230;-68
2022/05/27 02:13:10;;;;;;;5.28;4.60;;;;;;;19.94;52.93;95415.81;5015114;28;20481;-64
2022/05/27 02:15:42;;;;;;;8.02;5.03;;;;;;;19.97;52.90;95413.56;5019496;28;20221;-68
2022/05/27 02:18:19;;;;;;;5.63;5.03;;;;;;;20.03;52.91;95406.63;5020342;28;20218;-64
2022/05/27 02:20:52;;;;;;;6.10;4.93;;;;;;;20.00;52.95;95407.00;5053283;28;20248;-67
2022/05/27 02:23:29;;;;;;;6.10;4.38;;;;;;;19.90;53.27;95401.22;5055108;28;20209;-69
2022/05/27 02:26:01;;;;;;;8.45;4.90;;;;;;;19.87;53.31;95407.78;5023161;28;20217;-66
2022/05/27 02:28:34;;;;;;;8.43;5.40;;;;;;;19.80;53.73;95415.75;5023320;28;20546;-68
2022/05/27 02:31:09;;;;;;;9.55;5.55;;;;;;;19.77;53.86;95426.00;5015760;28;20373;-61
2022/05/27 02:36:32;;;;;;;6.30;5.22;;;;;;;19.53;54.62;95421.97;5037672;28;20300;-65
2022/05/27 02:38:57;;;;;;;6.05;5.45;;;;;;;19.66;54.20;95419.41;5015681;28;20283;-61
2022/05/27 02:41:41;;;;;;;9.85;5.22;;;;;;;19.69;54.23;95424.34;5035043;28;20213;-62
2022/05/27 02:44:15;;;;;;;6.28;5.20;;;;;;;19.67;54.25;95426.38;5018442;28;20250;-66
2022/05/27 02:46:50;;;;;;;6.97;5.63;;;;;;;19.76;53.99;95427.88;5032515;28;20232;-64
2022/05/27 02:49:34;;;;;;;8.15;5.82;;;;;;;19.69;54.10;95423.50;5022902;28;20229;-61
2022/05/27 02:52:24;;;;;;;7.22;5.80;;;;;;;19.54;54.57;95419.13;5036680;28;20222;-61
2022/05/27 02:55:00;;;;;;;10.00;5.93;;;;;;;19.53;54.67;95421.97;5012149;28;20443;-61
2022/05/27 02:57:47;;;;;;;8.27;6.10;;;;;;;19.57;54.55;95416.06;5014537;28;20245;-64
2022/05/27 03:00:26;;;;;;;7.32;6.32;;;;;;;19.58;54.32;95419.53;5021332;28;20230;-66
2022/05/27 03:02:52;;;;;;;7.50;6.20;;;;;;;19.60;54.31;95421.00;5012922;28;20249;-64
2022/05/27 03:05:29;;;;;;;8.18;6.68;;;;;;;19.56;54.43;95424.25;5020079;28;20197;-64
2022/05/27 03:08:16;;;;;;;9.13;6.80;;;;;;;19.53;54.63;95427.31;5017599;28;20312;-66
2022/05/27 03:11:15;;;;;;;6.72;5.45;;;;;;;19.49;54.66;95432.22;5037019;28;20214;-66
2022/05/27 03:14:23;;;;;;;6.15;5.65;;;;;;;19.57;54.57;95431.25;5051897;28;20235;-62
2022/05/27 03:17:13;;;;;;;7.35;5.53;;;;;;;19.56;54.50;95440.25;5000400;28;20237;-64
2022/05/27 03:19:59;;;;;;;10.10;6.55;;;;;;;19.46;54.54;95437.94;5015869;28;20229;-67
2022/05/27 03:23:01;;;;;;;7.47;5.70;;;;;;;19.54;54.27;95431.59;5053127;28;20248;-61
2022/05/27 03:25:41;;;;;;;6.72;5.88;;;;;;;19.49;54.56;95442.88;4908461;29;20229;-61
2022/05/27 03:28:07;;;;;;;8.63;6.20;;;;;;;19.42;54.64;95436.69;4918704;29;20284;-64
2022/05/27 03:30:40;;;;;;;6.93;5.88;;;;;;;19.35;55.10;95433.16;4920872;29;20225;-68
2022/05/27 03:33:17;;;;;;;8.27;5.72;;;;;;;19.34;54.92;95431.50;4905959;29;20237;-61
2022/05/27 03:35:52;;;;;;;7.18;6.05;;;;;;;19.39;54.63;95432.56;4903468;29;20236;-64
2022/05/27 03:38:26;;;;;;;6.78;6.05;;;;;;;19.35;54.88;95441.13;4900201;29;20244;-68
2022/05/27 03:41:21;;;;;;;7.63;5.80;;;;;;;19.33;54.71;95424.53;4907152;29;20241;-63
2022/05/27 03:43:47;;;;;;;7.25;6.25;;;;;;;19.37;54.57;95431.09;4909752;29;20240;-66
2022/05/27 03:46:12;;;;;;;8.63;6.05;;;;;;;19.50;54.72;95431.19;4894552;29;20226;-64
2022/05/27 03:48:38;;;;;;;8.95;6.63;;;;;;;19.49;54.51;95436.72;4905503;29;20237;-68
2022/05/27 03:51:22;;;;;;;8.57;6.05;;;;;;;19.56;54.32;95433.06;4920528;29;20229;-67
2022/05/27 03:54:05;;;;;;;6.63;5.90;;;;;;;19.50;54.56;95439.19;4917627;29;20237;-67
2022/05/27 03:56:37;;;;;;;9.27;6.75;;;;;;;19.25;55.36;95422.84;4921509;29;20221;-61
2022/05/27 03:59:04;;;;;;;10.00;6.70;;;;;;;19.50;54.62;95431.19;4922945;29;20261;-64
2022/05/27 04:01:32;;;;;;;7.35;6.43;;;;;;;19.57;54.18;95426.72;4945044;28;20259;-67
2022/05/27 04:03:59;;;;;;;6.72;6.13;;;;;;;19.60;54.44;95428.16;5014270;28;20233;-66
2022/05/27 04:06:27;;;;;;;8.02;5.85;;;;;;;19.68;53.89;95428.03;5016934;28;20229;-67
2022/05/27 04:08:53;;;;;;;9.13;6.40;;;;;;;19.77;53.78;95440.16;5014298;28;20222;-61
2022/05/27 04:11:19;;;;;;;8.68;6.30;;;;;;;19.71;53.45;95424.16;5019539;28;20297;-67
2022/05/27 04:13:45;;;;;;;7.00;6.32;;;;;;;19.80;54.18;95426.44;5022749;28;20217;-67
2022/05/27 04:16:11;;;;;;;7.20;6.25;;;;;;;19.70;53.64;95430.47;5034750;28;20233;-67
2022/05/27 04:18:36;;;;;;;7.55;6.68;;;;;;;19.72;53.64;95431.94;5030154;28;20217;-66
2022/05/27 04:21:02;;;;;;;7.82;5.97;;;;;;;19.54;54.51;95429.78;5058277;28;20684;-61
2022/05/27 04:23:28;;;;;;;8.35;6.35;;;;;;;19.56;54.29;95433.06;5028931;28;20457;-67
2022/05/27 04:25:53;;;;;;;8.93;6.97;;;;;;;19.65;53.82;95431.06;5028400;28;20194;-68
2022/05/27 04:28:19;;;;;;;7.85;7.15;;;;;;;19.69;53.90;95423.50;5055293;28;20226;-63
2022/05/27 04:30:45;;;;;;;10.57;6.22;;;;;;;19.72;53.69;95431.94;5015578;28;20238;-68
2022/05/27 04:33:11;;;;;;;7.95;5.97;;;;;;;19.71;53.90;95427.63;5026810;28;20229;-68
2022/05/27 04:35:37;;;;;;;7.47;5.57;;;;;;;19.70;54.00;95420.66;5034346;28;20205;-69
2022/05/27 04:38:03;;;;;;;7.10;6.32;;;;;;;19.55;54.31;95430.59;5036971;28;20280;-69
2022/05/27 04:40:28;;;;;;;9.05;6.53;;;;;;;19.69;53.89;95427.00;5050349;28;20655;-65
2022/05/27 04:42:54;;;;;;;8.02;5.78;;;;;;;19.76;53.60;95422.53;5051291;28;20221;-65
2022/05/27 04:45:20;;;;;;;6.90;6.20;;;;;;;19.91;52.95;95427.69;5025119;28;20268;-68
2022/05/27 04:47:46;;;;;;;8.57;6.90;;;;;;;19.87;53.58;95433.66;5016863;28;20217;-71
2022/05/27 04:50:12;;;;;;;8.50;6.32;;;;;;;20.14;52.51;95427.38;5021522;28;20206;-65
2022/05/27 04:52:39;;;;;;;12.32;8.25;;;;;;;20.22;51.54;95427.19;5035134;28;20233;-67
2022/05/27 04:55:09;;;;;;;11.60;8.55;;;;;;;20.24;51.28;95427.00;5020985;28;20229;-63
2022/05/27 04:57:39;;;;;;;8.55;7.18;;;;;;;20.09;51.56;95427.16;5032785;28;20230;-65
2022/05/27 05:00:08;;;;;;;8.25;6.28;;;;;;;20.16;51.44;95422.66;5025088;28;20276;-65
2022/05/27 05:02:34;;;;;;;7.22;6.43;;;;;;;20.12;51.91;95424.06;5033828;28;20222;-64
2022/05/27 05:04:59;;;;;;;5.65;5.15;;;;;;;20.02;51.84;95420.97;5034760;28;20216;-64
2022/05/27 05:07:25;;;;;;;9.38;5.97;;;;;;;20.09;51.95;95421.00;5019252;28;20947;-67
2022/05/27 05:09:51;;;;;;;7.70;5.95;;;;;;;20.07;52.26;95412.38;5057043;28;20217;-66
2022/05/27 05:12:22;;;;;;;8.10;5.80;;;;;;;20.17;52.48;95416.28;5023169;28;20245;-68
2022/05/27 05:14:52;;;;;;;6.55;5.45;;;;;;;20.32;52.27;95420.66;5020200;28;20237;-67
2022/05/27 05:17:18;;;;;;;7.03;5.57;;;;;;;20.20;52.52;95417.75;5027407;28;20232;-63
2022/05/27 05:19:44;;;;;;;7.22;5.75;;;;;;;20.30;52.11;95425.38;5054026;28;20226;-62
2022/05/27 05:22:09;;;;;;;11.65;5.57;;;;;;;20.20;52.53;95417.75;5019167;28;20234;-69
2022/05/27 05:24:35;;;;;;;9.18;5.88;;;;;;;20.41;52.60;95420.25;5025343;28;20222;-68
2022/05/27 05:27:00;;;;;;;7.72;5.85;;;;;;;20.43;52.39;95422.72;5008307;28;20225;-62
2022/05/27 05:29:26;;;;;;;7.30;5.43;;;;;;;20.36;52.52;95417.34;5036388;28;20202;-65
2022/05/27 05:31:51;;;;;;;10.73;5.72;;;;;;;20.49;52.01;95427.25;5056187;28;20296;-68
2022/05/27 05:34:17;;;;;;;7.18;6.18;;;;;;;20.65;50.75;95420.72;5022791;28;20728;-63
2022/05/27 05:36:42;;;;;;;6.65;5.30;;;;;;;20.66;50.55;95419.69;5053403;28;20307;-69
2022/05/27 05:39:08;;;;;;;8.63;5.38;;;;;;;20.65;49.73;95426.88;5008419;28;20246;-69
2022/05/27 05:41:37;;;;;;;8.55;5.38;;;;;;;20.69;49.49;95421.97;5009343;28;20222;-67
2022/05/27 05:44:05;;;;;;;6.80;4.45;;;;;;;20.76;49.54;95421.97;4999099;28;20218;-64
2022/05/27 05:46:33;;;;;;;7.05;4.68;;;;;;;20.81;48.74;95419.50;4997397;28;20226;-62
2022/05/27 05:48:59;;;;;;;4.88;4.05;;;;;;;20.63;48.73;95417.44;4994705;28;20226;-63
2022/05/27 05:51:24;;;;;;;10.10;4.30;;;;;;;20.86;48.38;95415.19;5012711;28;20248;-69
2022/05/27 05:53:50;;;;;;;7.15;4.03;;;;;;;20.98;47.64;95410.03;4997147;28;20222;-68
2022/05/27 05:56:15;;;;;;;5.07;3.60;;;;;;;21.11;47.43;95415.34;5004161;28;20202;-62
2022/05/27 05:58:41;;;;;;;5.63;3.55;;;;;;;21.14;47.61;95424.81;5003036;28;20218;-62
2022/05/27 06:01:06;;;;;;;9.70;4.80;;;;;;;21.18;47.12;95415.38;5003524;28;20277;-62
2022/05/27 06:03:32;;;;;;;5.90;3.67;;;;;;;21.24;47.58;95422.53;4997783;28;20254;-64
2022/05/27 06:05:58;;;;;;;7.50;4.00;;;;;;;21.33;47.24;95418.63;5005525;28;20222;-63
2022/05/27 06:08:23;;;;;;;7.47;3.50;;;;;;;21.44;46.67;95424.38;4998932;28;20222;-69
2022/05/27 06:10:49;;;;;;;5.75;3.97;;;;;;;21.42;47.17;95427.28;5010921;28;20209;-62
2022/05/27 06:13:15;;;;;;;8.10;4.15;;;;;;;21.38;47.09;95417.19;4994159;28;20218;-70
2022/05/27 06:15:41;;;;;;;6.00;3.67;;;;;;;21.29;47.61;95425.41;5011899;28;20236;-69
2022/05/27 06:18:07;;;;;;;6.68;4.55;;;;;;;21.49;47.14;95419.22;5004049;28;20238;-64
2022/05/27 06:20:36;;;;;;;8.95;4.38;;;;;;;21.41;47.48;95422.97;4996050;28;20327;-70
2022/05/27 06:23:08;;;;;;;5.28;3.60;;;;;;;21.55;46.97;95415.72;5002936;28;20210;-63
2022/05/27 06:25:38;;;;;;;4.93;3.75;;;;;;;21.62;47.35;95418.38;4997598;28;20229;-61
2022/05/27 06:36:18;;;;;;;6.30;4.68;;;;;;;21.84;45.87;95410.88;5020273;28;20261;-66
2022/05/27 06:38:43;;;;;;;8.75;6.50;;;;;;;21.90;45.63;95412.72;5010116;28;20246;-68
2022/05/27 06:41:09;;;;;;;7.80;4.20;;;;;;;22.05;45.85;95420.47;5023117;28;20238;-62
2022/05/27 06:43:35;;;;;;;6.75;4.30;;;;;;;22.25;44.56;95413.19;5021741;28;20229;-63
2022/05/27 06:46:01;;;;;;;9.88;4.13;;;;;;;22.29;44.17;95409.03;5022520;28;20225;-62
2022/05/27 06:48:27;;;;;;;6.72;3.78;;;;;;;22.41;44.13;95406.50;5022323;28;20218;-64
2022/05/27 06:50:53;;;;;;;7.82;4.00;;;;;;;22.33;44.00;95407.59;5021906;28;20224;-63
2022/05/27 06:53:18;;;;;;;5.85;3.75;;;;;;;22.30;44.28;95397.31;5036936;28;20201;-64
2022/05/27 06:55:52;;;;;;;7.78;3.85;;;;;;;22.39;44.05;95398.69;5009962;28;20225;-71
2022/05/27 06:58:17;;;;;;;6.93;3.60;;;;;;;22.40;43.29;95392.28;5035030;28;20251;-64
2022/05/27 07:00:43;;;;;;;4.47;3.90;;;;;;;22.39;43.21;95392.50;5036962;28;20237;-68
2022/05/27 07:03:09;;;;;;;5.20;3.80;;;;;;;22.51;43.55;95397.97;5024512;28;20225;-67
2022/05/27 07:05:35;;;;;;;5.65;3.90;;;;;;;22.50;44.37;95394.47;5030067;28;20211;-62
2022/05/27 07:08:05;;;;;;;8.05;3.47;;;;;;;22.45;43.66;95392.47;5020942;28;20245;-67
2022/05/27 07:10:31;;;;;;;6.65;3.45;;;;;;;22.52;43.69;95394.28;5024050;28;20337;-69
2022/05/27 07:13:00;;;;;;;4.65;3.55;;;;;;;22.58;42.85;95390.72;5018482;28;20356;-61
2022/05/27 07:15:26;;;;;;;6.55;3.70;;;;;;;22.54;42.80;95387.66;5032997;28;20226;-66
2022/05/27 07:17:52;;;;;;;6.53;3.80;;;;;;;22.58;43.25;95374.63;5026689;28;20224;-65
2022/05/27 07:20:18;;;;;;;4.97;3.17;;;;;;;22.55;42.71;95375.06;5021457;28;20583;-62
2022/05/27 07:22:43;;;;;;;5.05;3.78;;;;;;;22.63;43.59;95378.31;5018224;28;20233;-65
2022/05/27 07:25:11;;;;;;;6.65;4.10;;;;;;;22.68;41.43;95378.47;5031345;28;20339;-67
2022/05/27 07:27:37;;;;;;;7.00;5.07;;;;;;;22.63;41.29;95374.81;5031626;28;20329;-63
2022/05/27 07:30:03;;;;;;;5.88;3.50;;;;;;;22.81;41.70;95376.72;5023611;28;20320;-62
2022/05/27 07:32:33;;;;;;;6.72;3.95;;;;;;;22.72;41.71;95372.66;5018380;28;20229;-66
2022/05/27 07:34:58;;;;;;;5.18;3.10;;;;;;;22.74;40.11;95368.72;5025252;28;20211;-68
2022/05/27 07:37:24;;;;;;;3.75;3.30;;;;;;;22.71;40.19;95358.44;5020479;28;20476;-63
2022/05/27 07:39:50;;;;;;;5.38;3.08;;;;;;;22.92;40.95;95356.44;5015387;28;20233;-67
2022/05/27 07:42:15;;;;;;;5.85;3.60;;;;;;;23.03;40.76;95351.19;5018676;28;20268;-67
2022/05/27 07:44:41;;;;;;;6.30;3.88;;;;;;;23.09;41.33;95357.50;5025491;28;20634;-69
2022/05/27 07:47:06;;;;;;;7.28;4.00;;;;;;;22.98;40.68;95347.53;5034247;28;20226;-63
2022/05/27 07:49:32;;;;;;;7.07;3.38;;;;;;;23.12;40.53;95351.72;5035555;28;20222;-69
2022/05/27 07:51:58;;;;;;;5.57;3.45;;;;;;;23.15;40.19;95348.59;5019850;28;20229;-64
2022/05/27 07:54:23;;;;;;;4.97;3.95;;;;;;;23.28;40.07;95344.94;5029808;28;20324;-69
2022/05/27 07:56:49;;;;;;;5.03;2.92;;;;;;;23.32;38.83;95343.47;5025081;28;20344;-63
2022/05/27 07:59:14;;;;;;;5.00;3.28;;;;;;;23.30;39.05;95346.34;5029292;28;20202;-67
2022/05/27 08:01:40;;;;;;;4.55;3.75;;;;;;;23.39;38.54;95341.53;5018476;28;20234;-65
2022/05/27 08:04:06;;;;;;;4.40;3.47;;;;;;;23.46;38.57;95342.25;5030557;28;20229;-61
2022/05/27 08:06:32;;;;;;;4.10;3.70;;;;;;;23.44;37.49;95344.38;5028186;28;20237;-61
2022/05/27 08:08:58;;;;;;;8.13;3.95;;;;;;;23.48;37.97;95342.06;5022484;28;20217;-62
2022/05/27 08:11:24;;;;;;;4.72;3.22;;;;;;;23.51;38.36;95341.59;5015515;28;20217;-67
2022/05/27 08:13:49;;;;;;;5.80;3.50;;;;;;;23.57;38.71;95335.31;5019227;28;20241;-66
2022/05/27 08:16:16;;;;;;;6.38;3.95;;;;;;;23.63;38.85;95338.97;5035322;28;20229;-61
2022/05/27 08:18:41;;;;;;;5.20;4.65;;;;;;;23.72;38.76;95338.47;5024913;28;20232;-64
2022/05/27 08:21:07;;;;;;;8.57;4.03;;;;;;;23.69;38.53;95330.03;5024263;28;20233;-64
2022/05/27 08:23:32;;;;;;;6.78;3.55;;;;;;;23.71;38.81;95315.38;5022272;28;20267;-63
2022/05/27 08:25:58;;;;;;;7.15;4.00;;;;;;;23.86;39.40;95319.50;5028798;28;20289;-62
2022/05/27 08:28:24;;;;;;;6.60;4.05;;;;;;;23.85;40.75;95325.94;5034279;28;20237;-64
2022/05/27 08:30:55;;;;;;;6.78;4.20;;;;;;;24.05;39.42;95321.09;5022791;28;20472;-65
2022/05/27 08:33:21;;;;;;;6.03;4.07;;;;;;;24.16;39.11;95317.66;5035765;28;20285;-64
2022/05/27 08:38:34;;;;;;;8.80;4.35;;;;;;;24.02;38.89;95308.13;5033698;28;20240;-65
2022/05/27 08:41:18;;;;;;;8.73;4.18;;;;;;;24.18;38.67;95307.47;5025176;28;20282;-67
2022/05/27 08:43:43;;;;;;;7.40;4.22;;;;;;;24.26;39.21;95302.81;5047352;28;20233;-67
2022/05/27 08:46:32;;;;;;;7.30;4.15;;;;;;;24.30;39.96;95295.91;5053783;28;20230;-64
2022/05/27 08:49:02;;;;;;;5.78;4.18;;;;;;;24.49;38.47;95299.41;5031443;28;20639;-65
2022/05/27 08:51:42;;;;;;;6.70;4.20;;;;;;;24.31;37.96;95297.56;5018502;28;20296;-62
2022/05/27 08:54:16;;;;;;;7.43;5.05;;;;;;;24.30;38.31;95299.44;5034988;28;20221;-66
2022/05/27 08:59:40;;;;;;;5.80;4.30;;;;;;;24.44;38.01;95289.34;5033016;28;20270;-62
2022/05/27 09:02:27;;;;;;;6.32;4.05;;;;;;;24.46;38.52;95292.63;5032995;28;20295;-62
2022/05/27 09:05:40;;;;;;;5.75;3.92;;;;;;;24.64;38.32;95284.44;5021780;28;20283;-67
2022/05/27 09:08:15;;;;;;;7.72;4.25;;;;;;;24.79;39.01;95292.03;4927757;29;20394;-63
2022/05/27 09:10:55;;;;;;;5.63;4.18;;;;;;;24.90;38.03;95287.72;4941162;28;20228;-62
2022/05/27 09:13:43;;;;;;;6.78;3.40;;;;;;;24.86;37.75;95281.19;4944823;28;20240;-63
2022/05/27 09:16:18;;;;;;;7.88;3.92;;;;;;;24.77;37.97;95278.00;4944400;28;20240;-65
2022/05/27 09:19:09;;;;;;;6.35;3.75;;;;;;;24.79;38.13;95272.41;4924809;29;20228;-67
2022/05/27 09:21:53;;;;;;;7.13;4.60;;;;;;;25.02;37.47;95276.94;4937591;28;20243;-65
2022/05/27 09:24:57;;;;;;;6.30;4.32;;;;;;;25.09;37.98;95267.69;4943332;28;20552;-66
2022/05/27 09:27:47;;;;;;;8.13;4.18;;;;;;;25.37;38.96;95263.47;4929287;28;20224;-62
2022/05/27 09:30:17;;;;;;;7.47;4.70;;;;;;;25.43;37.83;95269.75;4929642;28;20235;-66
2022/05/27 09:32:58;;;;;;;8.32;4.40;;;;;;;25.44;37.13;95269.50;4945861;28;20295;-65
2022/05/27 09:35:33;;;;;;;7.57;4.82;;;;;;;25.20;37.63;95265.25;4929403;28;20209;-65
2022/05/27 09:38:02;;;;;;;10.82;4.38;;;;;;;25.23;37.53;95264.75;4942171;29;20240;-62
2022/05/27 09:40:27;;;;;;;7.18;4.68;;;;;;;25.29;36.27;95258.44;4942347;28;20283;-62
2022/05/27 09:43:08;;;;;;;6.78;3.97;;;;;;;25.32;36.18;95249.91;4995381;28;20320;-64
2022/05/27 09:45:35;;;;;;;8.63;4.32;;;;;;;25.42;37.07;95241.19;5026879;28;20218;-62
2022/05/27 09:48:04;;;;;;;6.55;4.57;;;;;;;25.51;37.08;95242.47;5011243;28;20679;-63
2022/05/27 09:50:43;;;;;;;5.72;4.30;;;;;;;25.59;36.20;95236.69;5011848;28;20210;-65
2022/05/27 09:53:25;;;;;;;7.18;4.03;;;;;;;25.60;36.22;95232.13;5020691;28;20198;-67
2022/05/27 09:55:59;;;;;;;7.40;4.07;;;;;;;25.72;35.05;95236.41;5018964;28;20219;-64
2022/05/27 09:58:37;;;;;;;9.18;4.82;;;;;;;25.85;35.21;95229.94;5018233;28;20312;-62
2022/05/27 10:01:17;;;;;;;8.13;4.22;;;;;;;25.92;35.34;95213.59;5014761;28;20256;-66
2022/05/27 10:03:43;;;;;;;4.85;4.30;;;;;;;26.08;35.67;95218.19;5002243;28;20226;-62
2022/05/27 10:06:12;;;;;;;7.32;3.83;;;;;;;26.28;34.56;95217.72;5017684;28;20219;-65
2022/05/27 10:08:49;;;;;;;6.90;3.63;;;;;;;26.20;35.98;95217.31;5015300;28;20202;-64
2022/05/27 10:11:38;;;;;;;9.25;4.57;;;;;;;26.42;35.39;95222.78;5023647;28;20703;-64
2022/05/27 10:14:18;;;;;;;6.50;3.72;;;;;;;26.46;34.65;95207.72;5019665;28;20261;-62
2022/05/27 10:17:00;;;;;;;7.88;3.55;;;;;;;26.70;34.27;95205.69;5013775;28;20232;-62
2022/05/27 10:19:26;;;;;;;11.07;4.32;;;;;;;26.72;34.50;95203.56;5015231;28;20221;-63
2022/05/27 10:21:57;;;;;;;7.72;4.10;;;;;;;26.79;33.61;95196.94;5013045;28;20234;-67
2022/05/27 10:24:27;;;;;;;8.57;3.60;;;;;;;26.90;33.63;95191.69;5011518;28;20222;-71
2022/05/27 10:27:20;;;;;;;5.05;3.85;;;;;;;27.18;34.07;95188.81;5012969;28;20254;-65
2022/05/27 10:29:55;;;;;;;11.65;4.90;;;;;;;27.38;33.94;95182.84;4995374;28;20230;-69
2022/05/27 10:32:40;;;;;;;8.18;4.13;;;;;;;27.49;32.63;95184.59;5037063;28;20263;-65
2022/05/27 10:35:10;;;;;;;8.45;3.53;;;;;;;27.34;31.22;95186.28;5032448;28;20202;-64
2022/05/27 10:38:10;;;;;;;7.15;3.47;;;;;;;27.49;31.88;95172.97;5031482;28;20261;-65
2022/05/27 10:41:05;;;;;;;6.18;3.95;;;;;;;27.62;31.79;95169.06;5020583;28;20263;-63
2022/05/27 10:43:45;;;;;;;7.72;3.22;;;;;;;27.82;30.94;95176.56;4979917;28;20570;-63
2022/05/27 10:46:15;;;;;;;5.40;3.22;;;;;;;27.77;31.25;95169.19;4979053;28;20251;-64
2022/05/27 10:48:43;;;;;;;6.45;3.65;;;;;;;27.97;30.48;95167.78;4991711;28;20230;-68
2022/05/27 10:51:28;;;;;;;6.75;3.88;;;;;;;27.92;29.37;95160.44;4977588;28;20231;-69
2022/05/27 10:54:14;;;;;;;6.68;3.13;;;;;;;27.98;29.48;95153.19;4979153;28;20308;-68
2022/05/27 11:02:59;;;;;;;6.32;3.38;;;;;;;28.69;29.19;95142.91;4994481;28;20292;-65
2022/05/27 11:06:03;;;;;;;9.38;3.50;;;;;;;28.75;28.07;95139.13;4975964;28;20222;-65
2022/05/27 11:08:33;;;;;;;8.68;3.05;;;;;;;28.70;28.10;95127.47;4974724;28;20206;-61
2022/05/27 11:11:22;;;;;;;7.15;3.33;;;;;;;28.90;27.99;95124.88;4983551;28;20385;-62
2022/05/27 11:16:56;;;;;;;6.38;3.13;;;;;;;29.03;27.33;95121.66;4992915;28;20601;-67
2022/05/27 11:19:30;;;;;;;8.27;3.47;;;;;;;29.09;26.78;95110.91;5003390;28;20311;-66
2022/05/27 11:22:17;;;;;;;6.32;3.45;;;;;;;29.21;27.40;95114.16;5045985;28;20235;-67
2022/05/27 11:24:55;;;;;;;8.60;3.58;;;;;;;29.18;26.91;95117.41;5049870;28;20287;-71
2022/05/27 11:27:54;;;;;;;8.02;3.35;;;;;;;29.28;27.23;95108.50;5025874;28;20355;-71
2022/05/27 11:30:46;;;;;;;6.70;3.63;;;;;;;29.31;27.01;95105.25;5052824;28;20252;-64
2022/05/27 11:33:31;;;;;;;5.30;3.00;;;;;;;29.34;26.00;95102.00;4982423;28;20231;-69
2022/05/27 11:36:09;;;;;;;3.83;3.17;;;;;;;29.52;26.81;95079.03;4991133;28;20243;-70
2022/05/27 11:38:53;;;;;;;7.53;3.78;;;;;;;29.84;25.80;95085.03;4981817;28;20317;-65
2022/05/27 11:41:55;;;;;;;7.43;3.42;;;;;;;29.90;25.84;95081.22;4979128;28;20247;-64
2022/05/27 11:44:39;;;;;;;8.50;3.47;;;;;;;30.12;26.31;95080.13;4981389;28;20331;-65
2022/05/27 11:47:25;;;;;;;8.93;3.35;;;;;;;30.14;25.80;95080.66;4972428;28;20207;-70
2022/05/27 11:50:03;;;;;;;7.13;3.60;;;;;;;30.20;25.29;95065.19;4971377;28;20260;-71
2022/05/27 11:52:50;;;;;;;6.32;3.20;;;;;;;30.34;25.00;95063.59;4986757;28;20311;-65
2022/05/27 11:55:39;;;;;;;6.07;3.28;;;;;;;30.54;25.99;95065.41;4981144;28;20273;-72
2022/05/27 11:58:22;;;;;;;5.50;3.70;;;;;;;30.35;26.14;95048.13;4965997;28;20540;-65
2022/05/27 12:01:02;;;;;;;8.23;3.30;;;;;;;30.59;26.00;95053.75;4982391;28;20231;-66
2022/05/27 12:03:45;;;;;;;4.65;3.65;;;;;;;30.74;25.57;95040.91;4981355;28;20232;-67
2022/05/27 12:06:17;;;;;;;8.05;3.70;;;;;;;30.96;25.59;95034.34;4967641;28;20282;-66
2022/05/27 12:08:51;;;;;;;9.07;3.88;;;;;;;31.00;24.76;95032.66;4957177;28;20314;-65
2022/05/27 12:11:24;;;;;;;9.95;3.50;;;;;;;31.25;25.02;95039.03;5028138;28;20217;-70
2022/05/27 12:13:56;;;;;;;8.60;3.95;;;;;;;31.41;24.59;95030.53;4999034;28;20225;-71
2022/05/27 12:16:31;;;;;;;6.75;3.45;;;;;;;31.43;24.40;95035.69;4995914;28;20238;-75
2022/05/27 12:19:14;;;;;;;8.30;3.90;;;;;;;31.39;24.80;95026.47;5015443;28;20222;-65
2022/05/27 12:21:52;;;;;;;9.80;3.65;;;;;;;31.48;24.08;95015.81;5004151;28;20234;-67
2022/05/27 12:24:25;;;;;;;6.45;3.38;;;;;;;31.41;24.11;95014.25;5036447;28;20229;-71
2022/05/27 12:26:53;;;;;;;6.40;3.85;;;;;;;31.33;24.20;95013.97;5008816;28;20222;-63
2022/05/27 12:29:21;;;;;;;8.85;4.03;;;;;;;31.74;23.71;95021.84;5031723;28;20219;-70
2022/05/27 12:31:50;;;;;;;5.78;3.60;;;;;;;31.82;24.07;95007.66;5006045;28;20238;-68